sensor_id;sensor_type;location;lat;lon;timestamp;temperature;humidity
66035;HTU21D;52805;51.074;5.842;2023-03-01T00:01:07;2.51;63.37
66035;HTU21D;52805;51.074;5.842;2023-03-01T00:03:33;2.49;63.53
66035;HTU21D;52805;51.074;5.842;2023-03-01T00:06:00;2.45;63.50
66035;HTU21D;52805;51.074;5.842;2023-03-01T00:08:27;2.42;63.54
66035;HTU21D;52805;51.074;5.842;2023-03-01T00:13:30;2.39;63.82
66035;HTU21D;52805;51.074;5.842;2023-03-01T00:15:56;2.38;63.83
66035;HTU21D;52805;51.074;5.842;2023-03-01T00:18:21;2.39;63.81
66035;HTU21D;52805;51.074;5.842;2023-03-01T00:20:53;2.41;63.69
66035;HTU21D;52805;51.074;5.842;2023-03-01T00:23:19;2.41;63.70
66035;HTU21D;52805;51.074;5.842;2023-03-01T00:25:45;2.44;63.67
66035;HTU21D;52805;51.074;5.842;2023-03-01T00:28:11;2.47;63.58
66035;HTU21D;52805;51.074;5.842;2023-03-01T00:30:36;2.45;63.60
66035;HTU21D;52805;51.074;5.842;2023-03-01T00:33:02;2.44;63.67
66035;HTU21D;52805;51.074;5.842;2023-03-01T00:35:28;2.43;63.75
66035;HTU21D;52805;51.074;5.842;2023-03-01T00:37:53;2.42;63.82
66035;HTU21D;52805;51.074;5.842;2023-03-01T00:40:24;2.38;63.96
66035;HTU21D;52805;51.074;5.842;2023-03-01T00:42:50;2.38;64.02
66035;HTU21D;52805;51.074;5.842;2023-03-01T00:45:16;2.37;64.02
66035;HTU21D;52805;51.074;5.842;2023-03-01T00:47:42;2.36;64.08
66035;HTU21D;52805;51.074;5.842;2023-03-01T00:50:09;2.32;64.14
66035;HTU21D;52805;51.074;5.842;2023-03-01T00:52:35;2.30;64.21
66035;HTU21D;52805;51.074;5.842;2023-03-01T00:55:00;2.28;64.35
66035;HTU21D;52805;51.074;5.842;2023-03-01T00:57:26;2.27;64.45
66035;HTU21D;52805;51.074;5.842;2023-03-01T00:59:52;2.23;64.54
66035;HTU21D;52805;51.074;5.842;2023-03-01T01:02:19;2.21;64.62
66035;HTU21D;52805;51.074;5.842;2023-03-01T01:04:45;2.22;64.69
66035;HTU21D;52805;51.074;5.842;2023-03-01T01:07:11;2.23;64.69
66035;HTU21D;52805;51.074;5.842;2023-03-01T01:09:37;2.20;64.82
66035;HTU21D;52805;51.074;5.842;2023-03-01T01:12:04;2.20;64.89
66035;HTU21D;52805;51.074;5.842;2023-03-01T01:14:30;2.16;64.96
66035;HTU21D;52805;51.074;5.842;2023-03-01T01:16:56;2.15;65.06
66035;HTU21D;52805;51.074;5.842;2023-03-01T01:19:23;2.14;65.11
66035;HTU21D;52805;51.074;5.842;2023-03-01T01:21:49;2.12;65.16
66035;HTU21D;52805;51.074;5.842;2023-03-01T01:24:16;2.11;65.17
66035;HTU21D;52805;51.074;5.842;2023-03-01T01:26:42;2.11;65.24
66035;HTU21D;52805;51.074;5.842;2023-03-01T01:29:08;2.07;65.28
66035;HTU21D;52805;51.074;5.842;2023-03-01T01:31:36;2.06;65.27
66035;HTU21D;52805;51.074;5.842;2023-03-01T01:34:05;2.02;65.28
66035;HTU21D;52805;51.074;5.842;2023-03-01T01:36:32;2.01;65.40
66035;HTU21D;52805;51.074;5.842;2023-03-01T01:38:59;2.00;65.43
66035;HTU21D;52805;51.074;5.842;2023-03-01T01:41:26;1.98;65.53
66035;HTU21D;52805;51.074;5.842;2023-03-01T01:44:26;1.94;65.59
66035;HTU21D;52805;51.074;5.842;2023-03-01T01:47:00;1.94;65.58
66035;HTU21D;52805;51.074;5.842;2023-03-01T01:49:29;1.93;65.58
66035;HTU21D;52805;51.074;5.842;2023-03-01T01:52:19;1.92;65.59
66035;HTU21D;52805;51.074;5.842;2023-03-01T01:54:55;1.92;65.59
66035;HTU21D;52805;51.074;5.842;2023-03-01T01:57:26;1.87;65.64
66035;HTU21D;52805;51.074;5.842;2023-03-01T01:59:57;1.82;65.75
66035;HTU21D;52805;51.074;5.842;2023-03-01T02:02:25;1.80;65.80
66035;HTU21D;52805;51.074;5.842;2023-03-01T02:05:01;1.80;65.78
66035;HTU21D;52805;51.074;5.842;2023-03-01T02:07:30;1.76;65.74
66035;HTU21D;52805;51.074;5.842;2023-03-01T02:09:56;1.73;65.78
66035;HTU21D;52805;51.074;5.842;2023-03-01T02:12:24;1.69;65.90
66035;HTU21D;52805;51.074;5.842;2023-03-01T02:14:51;1.66;66.11
66035;HTU21D;52805;51.074;5.842;2023-03-01T02:17:18;1.63;66.11
66035;HTU21D;52805;51.074;5.842;2023-03-01T02:19:56;1.60;66.27
66035;HTU21D;52805;51.074;5.842;2023-03-01T02:22:31;1.61;66.28
66035;HTU21D;52805;51.074;5.842;2023-03-01T02:25:10;1.61;66.27
66035;HTU21D;52805;51.074;5.842;2023-03-01T02:27:51;1.58;66.24
66035;HTU21D;52805;51.074;5.842;2023-03-01T02:30:21;1.58;66.30
66035;HTU21D;52805;51.074;5.842;2023-03-01T02:32:49;1.55;66.43
66035;HTU21D;52805;51.074;5.842;2023-03-01T02:35:17;1.52;66.52
66035;HTU21D;52805;51.074;5.842;2023-03-01T02:37:45;1.51;66.56
66035;HTU21D;52805;51.074;5.842;2023-03-01T02:40:14;1.49;66.62
66035;HTU21D;52805;51.074;5.842;2023-03-01T02:42:52;1.41;66.76
66035;HTU21D;52805;51.074;5.842;2023-03-01T02:45:19;1.41;66.88
66035;HTU21D;52805;51.074;5.842;2023-03-01T02:47:45;1.41;66.91
66035;HTU21D;52805;51.074;5.842;2023-03-01T02:55:24;1.41;66.94
66035;HTU21D;52805;51.074;5.842;2023-03-01T02:57:50;1.40;66.98
66035;HTU21D;52805;51.074;5.842;2023-03-01T03:00:24;1.37;66.98
66035;HTU21D;52805;51.074;5.842;2023-03-01T03:02:53;1.35;67.10
66035;HTU21D;52805;51.074;5.842;2023-03-01T03:05:32;1.34;67.11
66035;HTU21D;52805;51.074;5.842;2023-03-01T03:08:00;1.34;67.09
66035;HTU21D;52805;51.074;5.842;2023-03-01T03:10:33;1.33;67.07
66035;HTU21D;52805;51.074;5.842;2023-03-01T03:13:03;1.28;67.14
66035;HTU21D;52805;51.074;5.842;2023-03-01T03:15:30;1.28;67.20
66035;HTU21D;52805;51.074;5.842;2023-03-01T03:17:57;1.27;67.22
66035;HTU21D;52805;51.074;5.842;2023-03-01T03:20:26;1.26;67.27
66035;HTU21D;52805;51.074;5.842;2023-03-01T03:22:54;1.27;67.22
66035;HTU21D;52805;51.074;5.842;2023-03-01T03:25:21;1.22;67.36
66035;HTU21D;52805;51.074;5.842;2023-03-01T03:27:50;1.22;67.42
66035;HTU21D;52805;51.074;5.842;2023-03-01T03:30:24;1.20;67.40
66035;HTU21D;52805;51.074;5.842;2023-03-01T03:32:50;1.20;67.48
66035;HTU21D;52805;51.074;5.842;2023-03-01T03:35:27;1.19;67.58
66035;HTU21D;52805;51.074;5.842;2023-03-01T03:37:57;1.12;67.74
66035;HTU21D;52805;51.074;5.842;2023-03-01T03:42:59;1.13;67.85
66035;HTU21D;52805;51.074;5.842;2023-03-01T03:45:25;1.11;67.91
66035;HTU21D;52805;51.074;5.842;2023-03-01T03:47:51;1.07;67.95
66035;HTU21D;52805;51.074;5.842;2023-03-01T03:50:17;1.02;68.11
66035;HTU21D;52805;51.074;5.842;2023-03-01T03:52:44;1.03;68.15
66035;HTU21D;52805;51.074;5.842;2023-03-01T03:55:11;1.04;68.15
66035;HTU21D;52805;51.074;5.842;2023-03-01T03:57:38;1.03;68.18
66035;HTU21D;52805;51.074;5.842;2023-03-01T04:00:05;1.03;68.17
66035;HTU21D;52805;51.074;5.842;2023-03-01T04:02:40;1.04;68.20
66035;HTU21D;52805;51.074;5.842;2023-03-01T04:05:07;1.02;68.25
66035;HTU21D;52805;51.074;5.842;2023-03-01T04:07:35;0.99;68.30
66035;HTU21D;52805;51.074;5.842;2023-03-01T04:10:05;0.97;68.33
66035;HTU21D;52805;51.074;5.842;2023-03-01T04:12:33;0.96;68.29
66035;HTU21D;52805;51.074;5.842;2023-03-01T04:15:07;0.98;68.34
66035;HTU21D;52805;51.074;5.842;2023-03-01T04:17:47;0.93;68.49
66035;HTU21D;52805;51.074;5.842;2023-03-01T04:20:19;0.92;68.51
66035;HTU21D;52805;51.074;5.842;2023-03-01T04:25:17;0.88;68.67
66035;HTU21D;52805;51.074;5.842;2023-03-01T04:27:43;0.87;68.75
66035;HTU21D;52805;51.074;5.842;2023-03-01T04:30:09;0.89;68.82
66035;HTU21D;52805;51.074;5.842;2023-03-01T04:32:35;0.88;68.80
66035;HTU21D;52805;51.074;5.842;2023-03-01T04:35:01;0.87;68.83
66035;HTU21D;52805;51.074;5.842;2023-03-01T04:37:27;0.86;68.81
66035;HTU21D;52805;51.074;5.842;2023-03-01T04:39:53;0.86;68.80
66035;HTU21D;52805;51.074;5.842;2023-03-01T04:42:19;0.84;68.85
66035;HTU21D;52805;51.074;5.842;2023-03-01T04:44:45;0.82;68.91
66035;HTU21D;52805;51.074;5.842;2023-03-01T04:47:12;0.81;68.94
66035;HTU21D;52805;51.074;5.842;2023-03-01T04:49:37;0.81;68.93
66035;HTU21D;52805;51.074;5.842;2023-03-01T04:52:04;0.79;68.96
66035;HTU21D;52805;51.074;5.842;2023-03-01T04:54:34;0.79;69.07
66035;HTU21D;52805;51.074;5.842;2023-03-01T04:57:01;0.80;69.14
66035;HTU21D;52805;51.074;5.842;2023-03-01T04:59:27;0.77;69.16
66035;HTU21D;52805;51.074;5.842;2023-03-01T05:01:55;0.76;69.34
66035;HTU21D;52805;51.074;5.842;2023-03-01T05:04:24;0.74;69.43
66035;HTU21D;52805;51.074;5.842;2023-03-01T05:06:50;0.74;69.53
66035;HTU21D;52805;51.074;5.842;2023-03-01T05:09:16;0.74;69.58
66035;HTU21D;52805;51.074;5.842;2023-03-01T05:11:42;0.74;69.71
66035;HTU21D;52805;51.074;5.842;2023-03-01T05:14:09;0.75;69.69
66035;HTU21D;52805;51.074;5.842;2023-03-01T05:16:35;0.75;69.69
66035;HTU21D;52805;51.074;5.842;2023-03-01T05:19:03;0.76;69.72
66035;HTU21D;52805;51.074;5.842;2023-03-01T05:21:42;0.73;69.64
66035;HTU21D;52805;51.074;5.842;2023-03-01T05:24:37;0.73;69.78
66035;HTU21D;52805;51.074;5.842;2023-03-01T05:27:05;0.71;69.90
66035;HTU21D;52805;51.074;5.842;2023-03-01T05:29:32;0.69;69.99
66035;HTU21D;52805;51.074;5.842;2023-03-01T05:32:01;0.69;70.04
66035;HTU21D;52805;51.074;5.842;2023-03-01T05:34:33;0.72;70.05
66035;HTU21D;52805;51.074;5.842;2023-03-01T05:37:01;0.72;70.06
66035;HTU21D;52805;51.074;5.842;2023-03-01T05:39:29;0.72;70.04
66035;HTU21D;52805;51.074;5.842;2023-03-01T05:42:00;0.71;70.09
66035;HTU21D;52805;51.074;5.842;2023-03-01T05:44:27;0.71;70.12
66035;HTU21D;52805;51.074;5.842;2023-03-01T05:46:54;0.71;70.13
66035;HTU21D;52805;51.074;5.842;2023-03-01T05:49:20;0.69;70.20
66035;HTU21D;52805;51.074;5.842;2023-03-01T05:51:51;0.68;70.20
66035;HTU21D;52805;51.074;5.842;2023-03-01T05:54:19;0.68;70.10
66035;HTU21D;52805;51.074;5.842;2023-03-01T05:56:45;0.67;70.21
66035;HTU21D;52805;51.074;5.842;2023-03-01T05:59:11;0.66;70.21
66035;HTU21D;52805;51.074;5.842;2023-03-01T06:01:37;0.66;70.24
66035;HTU21D;52805;51.074;5.842;2023-03-01T06:04:04;0.65;70.26
66035;HTU21D;52805;51.074;5.842;2023-03-01T06:06:33;0.64;70.23
66035;HTU21D;52805;51.074;5.842;2023-03-01T06:08:59;0.64;70.26
66035;HTU21D;52805;51.074;5.842;2023-03-01T06:11:25;0.63;70.26
66035;HTU21D;52805;51.074;5.842;2023-03-01T06:13:51;0.65;70.04
66035;HTU21D;52805;51.074;5.842;2023-03-01T06:16:16;0.65;70.00
66035;HTU21D;52805;51.074;5.842;2023-03-01T06:18:42;0.62;70.08
66035;HTU21D;52805;51.074;5.842;2023-03-01T06:21:09;0.63;70.13
66035;HTU21D;52805;51.074;5.842;2023-03-01T06:23:34;0.64;70.17
66035;HTU21D;52805;51.074;5.842;2023-03-01T06:26:04;0.61;70.15
66035;HTU21D;52805;51.074;5.842;2023-03-01T06:28:30;0.59;70.14
66035;HTU21D;52805;51.074;5.842;2023-03-01T06:30:56;0.59;70.07
66035;HTU21D;52805;51.074;5.842;2023-03-01T06:33:21;0.58;70.05
66035;HTU21D;52805;51.074;5.842;2023-03-01T06:35:50;0.57;70.05
66035;HTU21D;52805;51.074;5.842;2023-03-01T06:38:16;0.55;69.99
66035;HTU21D;52805;51.074;5.842;2023-03-01T06:40:45;0.58;70.04
66035;HTU21D;52805;51.074;5.842;2023-03-01T06:43:10;0.58;70.01
66035;HTU21D;52805;51.074;5.842;2023-03-01T06:45:36;0.59;69.96
66035;HTU21D;52805;51.074;5.842;2023-03-01T06:48:04;0.59;69.93
66035;HTU21D;52805;51.074;5.842;2023-03-01T06:50:30;0.59;70.00
66035;HTU21D;52805;51.074;5.842;2023-03-01T06:52:57;0.59;69.96
66035;HTU21D;52805;51.074;5.842;2023-03-01T06:55:23;0.60;70.01
66035;HTU21D;52805;51.074;5.842;2023-03-01T06:57:48;0.60;70.05
66035;HTU21D;52805;51.074;5.842;2023-03-01T07:00:14;0.63;70.07
66035;HTU21D;52805;51.074;5.842;2023-03-01T07:02:40;0.63;69.95
66035;HTU21D;52805;51.074;5.842;2023-03-01T07:05:06;0.63;69.98
66035;HTU21D;52805;51.074;5.842;2023-03-01T07:07:32;0.66;69.92
66035;HTU21D;52805;51.074;5.842;2023-03-01T07:09:58;0.67;69.84
66035;HTU21D;52805;51.074;5.842;2023-03-01T07:12:23;0.68;69.87
66035;HTU21D;52805;51.074;5.842;2023-03-01T07:14:49;0.69;69.97
66035;HTU21D;52805;51.074;5.842;2023-03-01T07:17:15;0.72;70.04
66035;HTU21D;52805;51.074;5.842;2023-03-01T07:19:40;0.75;70.13
66035;HTU21D;52805;51.074;5.842;2023-03-01T07:22:06;0.77;70.13
66035;HTU21D;52805;51.074;5.842;2023-03-01T07:24:33;0.79;70.11
66035;HTU21D;52805;51.074;5.842;2023-03-01T07:26:59;0.81;70.08
66035;HTU21D;52805;51.074;5.842;2023-03-01T07:29:25;0.84;70.05
66035;HTU21D;52805;51.074;5.842;2023-03-01T07:31:50;0.87;70.06
66035;HTU21D;52805;51.074;5.842;2023-03-01T07:34:16;0.92;69.97
66035;HTU21D;52805;51.074;5.842;2023-03-01T07:36:42;0.93;69.87
66035;HTU21D;52805;51.074;5.842;2023-03-01T07:39:10;0.99;69.73
66035;HTU21D;52805;51.074;5.842;2023-03-01T07:41:36;1.04;69.61
66035;HTU21D;52805;51.074;5.842;2023-03-01T07:44:01;1.09;69.54
66035;HTU21D;52805;51.074;5.842;2023-03-01T07:46:27;1.16;69.55
66035;HTU21D;52805;51.074;5.842;2023-03-01T07:48:53;1.14;69.58
66035;HTU21D;52805;51.074;5.842;2023-03-01T07:51:18;1.21;69.53
66035;HTU21D;52805;51.074;5.842;2023-03-01T07:53:46;1.23;69.62
66035;HTU21D;52805;51.074;5.842;2023-03-01T07:56:14;1.28;69.58
66035;HTU21D;52805;51.074;5.842;2023-03-01T07:58:42;1.33;69.68
66035;HTU21D;52805;51.074;5.842;2023-03-01T08:01:14;1.38;69.71
66035;HTU21D;52805;51.074;5.842;2023-03-01T08:03:41;1.43;69.64
66035;HTU21D;52805;51.074;5.842;2023-03-01T08:06:09;1.49;69.63
66035;HTU21D;52805;51.074;5.842;2023-03-01T08:08:35;1.54;69.54
66035;HTU21D;52805;51.074;5.842;2023-03-01T08:11:03;1.58;69.43
66035;HTU21D;52805;51.074;5.842;2023-03-01T08:13:30;1.64;69.28
66035;HTU21D;52805;51.074;5.842;2023-03-01T08:16:04;1.72;69.13
66035;HTU21D;52805;51.074;5.842;2023-03-01T08:18:31;1.79;68.90
66035;HTU21D;52805;51.074;5.842;2023-03-01T08:21:08;1.86;68.82
66035;HTU21D;52805;51.074;5.842;2023-03-01T08:23:34;1.93;68.69
66035;HTU21D;52805;51.074;5.842;2023-03-01T08:26:20;2.00;68.47
66035;HTU21D;52805;51.074;5.842;2023-03-01T08:28:48;2.06;68.38
66035;HTU21D;52805;51.074;5.842;2023-03-01T08:31:15;2.12;68.39
66035;HTU21D;52805;51.074;5.842;2023-03-01T08:33:41;2.16;68.21
66035;HTU21D;52805;51.074;5.842;2023-03-01T08:36:07;2.22;68.10
66035;HTU21D;52805;51.074;5.842;2023-03-01T08:38:34;2.27;68.03
66035;HTU21D;52805;51.074;5.842;2023-03-01T08:41:02;2.34;67.91
66035;HTU21D;52805;51.074;5.842;2023-03-01T08:43:28;2.37;67.69
66035;HTU21D;52805;51.074;5.842;2023-03-01T08:45:54;2.44;67.74
66035;HTU21D;52805;51.074;5.842;2023-03-01T08:48:20;2.51;67.62
66035;HTU21D;52805;51.074;5.842;2023-03-01T08:50:46;2.56;67.27
66035;HTU21D;52805;51.074;5.842;2023-03-01T08:53:11;2.59;67.17
66035;HTU21D;52805;51.074;5.842;2023-03-01T08:55:37;2.65;67.07
66035;HTU21D;52805;51.074;5.842;2023-03-01T08:58:03;2.70;67.06
66035;HTU21D;52805;51.074;5.842;2023-03-01T09:00:28;2.78;66.81
66035;HTU21D;52805;51.074;5.842;2023-03-01T09:02:55;2.82;66.33
66035;HTU21D;52805;51.074;5.842;2023-03-01T09:05:20;2.88;66.41
66035;HTU21D;52805;51.074;5.842;2023-03-01T09:07:46;2.98;65.94
66035;HTU21D;52805;51.074;5.842;2023-03-01T09:10:12;3.04;65.95
66035;HTU21D;52805;51.074;5.842;2023-03-01T09:12:37;3.12;65.87
66035;HTU21D;52805;51.074;5.842;2023-03-01T09:15:03;3.23;65.73
66035;HTU21D;52805;51.074;5.842;2023-03-01T09:17:29;3.28;65.72
66035;HTU21D;52805;51.074;5.842;2023-03-01T09:19:55;3.35;65.69
66035;HTU21D;52805;51.074;5.842;2023-03-01T09:22:20;3.44;65.29
66035;HTU21D;52805;51.074;5.842;2023-03-01T09:24:46;3.46;65.30
66035;HTU21D;52805;51.074;5.842;2023-03-01T09:27:11;3.55;65.14
66035;HTU21D;52805;51.074;5.842;2023-03-01T09:29:39;3.62;65.13
66035;HTU21D;52805;51.074;5.842;2023-03-01T09:32:05;3.69;64.92
66035;HTU21D;52805;51.074;5.842;2023-03-01T09:34:32;3.76;64.51
66035;HTU21D;52805;51.074;5.842;2023-03-01T09:37:17;3.84;64.39
66035;HTU21D;52805;51.074;5.842;2023-03-01T09:39:43;3.93;64.11
66035;HTU21D;52805;51.074;5.842;2023-03-01T09:42:12;4.02;63.88
66035;HTU21D;52805;51.074;5.842;2023-03-01T09:44:54;4.10;63.48
66035;HTU21D;52805;51.074;5.842;2023-03-01T09:47:25;4.19;63.21
66035;HTU21D;52805;51.074;5.842;2023-03-01T09:50:14;4.29;62.69
66035;HTU21D;52805;51.074;5.842;2023-03-01T09:53:02;4.35;62.64
66035;HTU21D;52805;51.074;5.842;2023-03-01T09:55:46;4.44;62.41
66035;HTU21D;52805;51.074;5.842;2023-03-01T10:09:47;4.84;61.31
66035;HTU21D;52805;51.074;5.842;2023-03-01T10:12:19;4.93;60.90
66035;HTU21D;52805;51.074;5.842;2023-03-01T10:15:12;5.02;60.48
66035;HTU21D;52805;51.074;5.842;2023-03-01T10:22:40;5.17;60.15
66035;HTU21D;52805;51.074;5.842;2023-03-01T10:25:06;5.28;59.48
66035;HTU21D;52805;51.074;5.842;2023-03-01T10:27:53;5.32;59.42
66035;HTU21D;52805;51.074;5.842;2023-03-01T10:30:29;5.41;59.02
66035;HTU21D;52805;51.074;5.842;2023-03-01T10:32:58;5.46;59.03
66035;HTU21D;52805;51.074;5.842;2023-03-01T10:35:29;5.55;58.99
66035;HTU21D;52805;51.074;5.842;2023-03-01T10:38:10;5.65;58.77
66035;HTU21D;52805;51.074;5.842;2023-03-01T10:43:25;5.83;58.22
66035;HTU21D;52805;51.074;5.842;2023-03-01T10:45:51;5.93;57.37
66035;HTU21D;52805;51.074;5.842;2023-03-01T10:48:18;5.91;57.58
66035;HTU21D;52805;51.074;5.842;2023-03-01T10:51:05;5.97;57.61
66035;HTU21D;52805;51.074;5.842;2023-03-01T10:53:40;6.05;57.31
66035;HTU21D;52805;51.074;5.842;2023-03-01T10:56:15;6.13;57.21
66035;HTU21D;52805;51.074;5.842;2023-03-01T10:59:03;6.20;57.03
66035;HTU21D;52805;51.074;5.842;2023-03-01T11:01:32;6.27;56.77
66035;HTU21D;52805;51.074;5.842;2023-03-01T11:06:32;6.36;56.05
66035;HTU21D;52805;51.074;5.842;2023-03-01T11:09:21;6.44;55.90
66035;HTU21D;52805;51.074;5.842;2023-03-01T11:11:57;6.54;55.43
66035;HTU21D;52805;51.074;5.842;2023-03-01T11:14:27;6.57;54.94
66035;HTU21D;52805;51.074;5.842;2023-03-01T11:17:04;6.61;54.16
66035;HTU21D;52805;51.074;5.842;2023-03-01T11:19:31;6.61;54.70
66035;HTU21D;52805;51.074;5.842;2023-03-01T11:22:18;6.66;54.86
66035;HTU21D;52805;51.074;5.842;2023-03-01T11:24:54;6.76;54.95
66035;HTU21D;52805;51.074;5.842;2023-03-01T11:27:36;6.89;54.26
66035;HTU21D;52805;51.074;5.842;2023-03-01T11:30:20;7.07;53.74
66035;HTU21D;52805;51.074;5.842;2023-03-01T11:35:53;7.29;53.52
66035;HTU21D;52805;51.074;5.842;2023-03-01T11:38:24;7.42;52.99
66035;HTU21D;52805;51.074;5.842;2023-03-01T11:41:20;7.55;52.29
66035;HTU21D;52805;51.074;5.842;2023-03-01T11:44:00;7.68;51.50
66035;HTU21D;52805;51.074;5.842;2023-03-01T11:49:43;7.76;51.07
66035;HTU21D;52805;51.074;5.842;2023-03-01T11:52:36;7.85;51.09
66035;HTU21D;52805;51.074;5.842;2023-03-01T11:58:23;8.00;50.35
66035;HTU21D;52805;51.074;5.842;2023-03-01T12:16:57;8.62;48.81
66035;HTU21D;52805;51.074;5.842;2023-03-01T12:36:27;8.72;48.15
66035;HTU21D;52805;51.074;5.842;2023-03-01T12:39:22;8.79;48.17
66035;HTU21D;52805;51.074;5.842;2023-03-01T12:42:14;8.88;47.88
66035;HTU21D;52805;51.074;5.842;2023-03-01T12:44:58;8.97;47.28
66035;HTU21D;52805;51.074;5.842;2023-03-01T12:50:20;9.16;46.79
66035;HTU21D;52805;51.074;5.842;2023-03-01T12:52:52;9.09;46.34
66035;HTU21D;52805;51.074;5.842;2023-03-01T12:55:39;9.03;46.57
66035;HTU21D;52805;51.074;5.842;2023-03-01T13:01:14;9.03;45.90
66035;HTU21D;52805;51.074;5.842;2023-03-01T13:06:44;9.10;44.96
66035;HTU21D;52805;51.074;5.842;2023-03-01T13:12:00;9.17;45.57
66035;HTU21D;52805;51.074;5.842;2023-03-01T13:16:58;9.26;45.40
66035;HTU21D;52805;51.074;5.842;2023-03-01T13:19:26;9.38;44.75
66035;HTU21D;52805;51.074;5.842;2023-03-01T13:21:54;9.35;44.64
66035;HTU21D;52805;51.074;5.842;2023-03-01T13:24:39;9.41;44.67
66035;HTU21D;52805;51.074;5.842;2023-03-01T13:29:51;9.48;45.17
66035;HTU21D;52805;51.074;5.842;2023-03-01T13:37:36;9.67;44.64
66035;HTU21D;52805;51.074;5.842;2023-03-01T13:42:54;9.62;44.63
66035;HTU21D;52805;51.074;5.842;2023-03-01T13:45:38;9.57;44.99
66035;HTU21D;52805;51.074;5.842;2023-03-01T13:48:17;9.68;44.50
66035;HTU21D;52805;51.074;5.842;2023-03-01T13:50:53;9.59;44.60
66035;HTU21D;52805;51.074;5.842;2023-03-01T13:53:25;9.64;44.74
66035;HTU21D;52805;51.074;5.842;2023-03-01T13:55:56;9.69;44.49
66035;HTU21D;52805;51.074;5.842;2023-03-01T13:58:33;9.74;44.54
66035;HTU21D;52805;51.074;5.842;2023-03-01T14:01:21;9.81;44.48
66035;HTU21D;52805;51.074;5.842;2023-03-01T14:03:48;9.88;44.00
66035;HTU21D;52805;51.074;5.842;2023-03-01T14:06:16;9.88;43.35
66035;HTU21D;52805;51.074;5.842;2023-03-01T14:08:46;9.82;43.55
66035;HTU21D;52805;51.074;5.842;2023-03-01T14:11:35;9.83;42.42
66035;HTU21D;52805;51.074;5.842;2023-03-01T14:14:50;9.78;42.48
66035;HTU21D;52805;51.074;5.842;2023-03-01T14:17:10;9.79;42.39
66035;HTU21D;52805;51.074;5.842;2023-03-01T14:19:38;9.83;42.51
66035;HTU21D;52805;51.074;5.842;2023-03-01T14:22:25;9.89;42.19
66035;HTU21D;52805;51.074;5.842;2023-03-01T14:25:22;9.85;42.16
66035;HTU21D;52805;51.074;5.842;2023-03-01T14:30:41;9.93;42.89
66035;HTU21D;52805;51.074;5.842;2023-03-01T14:35:56;10.03;42.71
66035;HTU21D;52805;51.074;5.842;2023-03-01T14:38:38;10.14;43.03
66035;HTU21D;52805;51.074;5.842;2023-03-01T14:41:25;10.20;42.77
66035;HTU21D;52805;51.074;5.842;2023-03-01T14:44:00;10.25;42.61
66035;HTU21D;52805;51.074;5.842;2023-03-01T14:46:38;10.29;43.00
66035;HTU21D;52805;51.074;5.842;2023-03-01T14:49:16;10.24;42.68
66035;HTU21D;52805;51.074;5.842;2023-03-01T14:51:53;10.20;42.76
66035;HTU21D;52805;51.074;5.842;2023-03-01T14:54:26;10.21;42.76
66035;HTU21D;52805;51.074;5.842;2023-03-01T14:56:57;10.25;42.60
66035;HTU21D;52805;51.074;5.842;2023-03-01T14:59:23;10.28;42.65
66035;HTU21D;52805;51.074;5.842;2023-03-01T15:01:53;10.26;42.28
66035;HTU21D;52805;51.074;5.842;2023-03-01T15:04:23;10.16;42.33
66035;HTU21D;52805;51.074;5.842;2023-03-01T15:06:52;10.18;42.45
66035;HTU21D;52805;51.074;5.842;2023-03-01T15:09:21;10.18;42.09
66035;HTU21D;52805;51.074;5.842;2023-03-01T15:11:47;10.11;42.29
66035;HTU21D;52805;51.074;5.842;2023-03-01T15:14:42;10.01;42.63
66035;HTU21D;52805;51.074;5.842;2023-03-01T15:17:23;10.00;42.70
66035;HTU21D;52805;51.074;5.842;2023-03-01T15:19:51;10.04;43.01
66035;HTU21D;52805;51.074;5.842;2023-03-01T15:22:17;10.07;42.32
66035;HTU21D;52805;51.074;5.842;2023-03-01T15:24:48;9.99;42.48
66035;HTU21D;52805;51.074;5.842;2023-03-01T15:27:21;9.99;42.69
66035;HTU21D;52805;51.074;5.842;2023-03-01T15:30:01;10.03;42.73
66035;HTU21D;52805;51.074;5.842;2023-03-01T15:32:33;10.08;42.79
66035;HTU21D;52805;51.074;5.842;2023-03-01T15:35:01;10.03;42.69
66035;HTU21D;52805;51.074;5.842;2023-03-01T15:37:48;10.08;42.41
66035;HTU21D;52805;51.074;5.842;2023-03-01T15:40:28;10.00;42.34
66035;HTU21D;52805;51.074;5.842;2023-03-01T15:43:05;9.95;42.16
66035;HTU21D;52805;51.074;5.842;2023-03-01T15:45:33;9.82;42.39
66035;HTU21D;52805;51.074;5.842;2023-03-01T15:48:15;9.77;42.55
66035;HTU21D;52805;51.074;5.842;2023-03-01T15:50:42;9.72;42.89
66035;HTU21D;52805;51.074;5.842;2023-03-01T15:53:14;9.72;43.11
66035;HTU21D;52805;51.074;5.842;2023-03-01T15:55:41;9.72;43.40
66035;HTU21D;52805;51.074;5.842;2023-03-01T15:58:14;9.78;43.42
66035;HTU21D;52805;51.074;5.842;2023-03-01T16:00:41;9.76;43.39
66035;HTU21D;52805;51.074;5.842;2023-03-01T16:03:10;9.74;43.67
66035;HTU21D;52805;51.074;5.842;2023-03-01T16:05:38;9.78;43.57
66035;HTU21D;52805;51.074;5.842;2023-03-01T16:08:05;9.71;43.77
66035;HTU21D;52805;51.074;5.842;2023-03-01T16:10:32;9.70;43.80
66035;HTU21D;52805;51.074;5.842;2023-03-01T16:12:58;9.74;43.80
66035;HTU21D;52805;51.074;5.842;2023-03-01T16:15:30;9.71;44.00
66035;HTU21D;52805;51.074;5.842;2023-03-01T16:17:57;9.66;43.75
66035;HTU21D;52805;51.074;5.842;2023-03-01T16:20:27;9.61;43.90
66035;HTU21D;52805;51.074;5.842;2023-03-01T16:22:54;9.55;44.07
66035;HTU21D;52805;51.074;5.842;2023-03-01T16:25:20;9.51;44.31
66035;HTU21D;52805;51.074;5.842;2023-03-01T16:27:49;9.49;44.42
66035;HTU21D;52805;51.074;5.842;2023-03-01T16:30:18;9.45;44.51
66035;HTU21D;52805;51.074;5.842;2023-03-01T16:32:46;9.44;44.45
66035;HTU21D;52805;51.074;5.842;2023-03-01T16:35:14;9.40;44.58
66035;HTU21D;52805;51.074;5.842;2023-03-01T16:37:40;9.37;44.41
66035;HTU21D;52805;51.074;5.842;2023-03-01T16:42:41;9.27;44.77
66035;HTU21D;52805;51.074;5.842;2023-03-01T16:45:08;9.16;44.84
66035;HTU21D;52805;51.074;5.842;2023-03-01T16:47:34;9.07;45.00
66035;HTU21D;52805;51.074;5.842;2023-03-01T16:50:00;8.97;45.31
66035;HTU21D;52805;51.074;5.842;2023-03-01T16:52:26;8.89;45.50
66035;HTU21D;52805;51.074;5.842;2023-03-01T16:54:52;8.79;45.80
66035;HTU21D;52805;51.074;5.842;2023-03-01T16:57:17;8.70;45.84
66035;HTU21D;52805;51.074;5.842;2023-03-01T16:59:43;8.59;46.01
66035;HTU21D;52805;51.074;5.842;2023-03-01T17:02:11;8.48;46.15
66035;HTU21D;52805;51.074;5.842;2023-03-01T17:04:39;8.39;46.38
66035;HTU21D;52805;51.074;5.842;2023-03-01T17:07:05;8.31;46.54
66035;HTU21D;52805;51.074;5.842;2023-03-01T17:09:34;8.24;46.56
66035;HTU21D;52805;51.074;5.842;2023-03-01T17:12:00;8.15;46.83
66035;HTU21D;52805;51.074;5.842;2023-03-01T17:14:25;8.07;46.96
66035;HTU21D;52805;51.074;5.842;2023-03-01T17:16:51;8.02;46.96
66035;HTU21D;52805;51.074;5.842;2023-03-01T17:19:18;7.93;47.12
66035;HTU21D;52805;51.074;5.842;2023-03-01T17:21:44;7.85;47.29
66035;HTU21D;52805;51.074;5.842;2023-03-01T17:24:11;7.77;47.35
66035;HTU21D;52805;51.074;5.842;2023-03-01T17:26:37;7.71;47.54
66035;HTU21D;52805;51.074;5.842;2023-03-01T17:29:03;7.62;47.71
66035;HTU21D;52805;51.074;5.842;2023-03-01T17:31:30;7.60;47.79
66035;HTU21D;52805;51.074;5.842;2023-03-01T17:33:56;7.52;47.89
66035;HTU21D;52805;51.074;5.842;2023-03-01T17:36:22;7.44;47.99
66035;HTU21D;52805;51.074;5.842;2023-03-01T17:38:48;7.39;48.16